createdAt,value
2023-04-16T00:01:41.259Z,7.60
2023-04-16T00:04:08.671Z,5.83
2023-04-16T00:06:35.758Z,6.77
2023-04-16T00:09:02.629Z,6.50
2023-04-16T00:11:29.499Z,6.80
2023-04-16T00:13:56.477Z,7.57
2023-04-16T00:16:23.444Z,6.23
2023-04-16T00:18:51.435Z,6.20
2023-04-16T00:21:18.423Z,6.67
2023-04-16T00:23:45.366Z,7.00
2023-04-16T00:26:12.395Z,7.30
2023-04-16T00:28:39.294Z,6.37
2023-04-16T00:31:06.210Z,6.40
2023-04-16T00:33:33.266Z,6.93
2023-04-16T00:36:00.181Z,6.80
2023-04-16T00:38:30.333Z,6.37
2023-04-16T00:41:00.279Z,7.40
2023-04-16T00:43:27.576Z,6.70
2023-04-16T00:45:57.316Z,6.37
2023-04-16T00:48:27.662Z,6.87
2023-04-16T00:50:56.060Z,6.30
2023-04-16T00:53:25.843Z,6.70
2023-04-16T00:55:56.005Z,7.77
2023-04-16T00:58:24.116Z,5.87
2023-04-16T01:00:51.230Z,7.17
2023-04-16T01:03:19.313Z,7.60
2023-04-16T01:05:49.152Z,7.03
2023-04-16T01:08:21.488Z,6.13
2023-04-16T01:10:48.388Z,6.53
2023-04-16T01:13:16.336Z,6.53
2023-04-16T01:15:43.255Z,7.00
2023-04-16T01:18:19.225Z,6.77
2023-04-16T01:20:48.323Z,6.90
2023-04-16T01:23:18.369Z,6.57
2023-04-16T01:25:47.124Z,6.70
2023-04-16T01:28:14.392Z,6.97
2023-04-16T01:30:41.476Z,7.23
2023-04-16T01:33:12.754Z,7.10
2023-04-16T01:35:41.930Z,7.53
2023-04-16T01:38:10.520Z,6.60
2023-04-16T01:40:38.375Z,6.57
2023-04-16T01:43:05.747Z,6.67
2023-04-16T01:45:35.155Z,6.83
2023-04-16T01:48:04.902Z,7.00
2023-04-16T01:50:32.797Z,7.83
2023-04-16T01:52:59.695Z,6.63
2023-04-16T01:55:26.830Z,6.50
2023-04-16T01:57:53.681Z,7.20
2023-04-16T02:00:20.717Z,8.10
2023-04-16T02:02:49.307Z,7.80
2023-04-16T02:05:16.719Z,7.00
2023-04-16T02:07:43.712Z,7.80
2023-04-16T02:10:10.767Z,8.23
2023-04-16T02:12:37.822Z,7.60
2023-04-16T02:15:05.982Z,7.63
2023-04-16T02:17:32.975Z,7.67
2023-04-16T02:19:59.869Z,6.93
2023-04-16T02:22:27.815Z,8.17
2023-04-16T02:24:54.778Z,7.93
2023-04-16T02:27:21.703Z,7.80
2023-04-16T02:29:48.527Z,7.80
2023-04-16T02:32:15.509Z,8.57
2023-04-16T02:34:43.247Z,7.67
2023-04-16T02:37:10.280Z,8.30
2023-04-16T02:39:37.177Z,8.13
2023-04-16T02:42:04.097Z,9.10
2023-04-16T02:44:31.065Z,8.43
2023-04-16T02:46:57.987Z,7.87
2023-04-16T02:49:24.920Z,7.80
2023-04-16T02:51:51.910Z,8.90
2023-04-16T02:54:18.988Z,7.40
2023-04-16T02:56:45.876Z,9.07
2023-04-16T02:59:12.857Z,7.93
2023-04-16T03:01:39.868Z,7.20
2023-04-16T03:04:06.933Z,6.53
2023-04-16T03:06:33.873Z,7.87
2023-04-16T03:09:00.846Z,7.40
2023-04-16T03:11:28.846Z,6.47
2023-04-16T03:13:56.513Z,7.23
2023-04-16T03:16:23.542Z,7.03
2023-04-16T03:18:52.599Z,7.07
2023-04-16T03:21:19.581Z,7.10
2023-04-16T03:23:47.712Z,6.80
2023-04-16T03:26:14.700Z,7.80
2023-04-16T03:28:42.603Z,7.80
2023-04-16T03:31:09.503Z,8.53
2023-04-16T03:33:36.485Z,7.63
2023-04-16T03:36:03.447Z,6.80
2023-04-16T03:38:30.523Z,6.87
2023-04-16T03:40:59.402Z,6.90
2023-04-16T03:43:27.290Z,6.07
2023-04-16T03:45:54.210Z,5.70
2023-04-16T03:48:21.175Z,6.43
2023-04-16T03:50:49.176Z,7.20
2023-04-16T03:53:16.367Z,8.47
2023-04-16T03:55:43.419Z,7.07
2023-04-16T03:58:11.309Z,7.50
2023-04-16T04:00:42.833Z,6.20
2023-04-16T04:03:11.540Z,7.13
2023-04-16T04:05:42.621Z,6.37
2023-04-16T04:08:10.497Z,7.00
2023-04-16T04:10:37.958Z,6.30
2023-04-16T04:13:06.842Z,6.37
2023-04-16T04:15:33.996Z,6.00
2023-04-16T04:18:00.974Z,5.30
2023-04-16T04:20:28.002Z,5.03
2023-04-16T04:22:54.834Z,5.53
2023-04-16T04:25:21.801Z,4.97
2023-04-16T04:27:49.157Z,6.23
2023-04-16T04:30:16.040Z,4.90
2023-04-16T04:32:43.193Z,5.53
2023-04-16T04:35:10.305Z,5.90
2023-04-16T04:37:37.202Z,5.17
2023-04-16T04:40:04.547Z,5.70
2023-04-16T04:42:31.680Z,5.60
2023-04-16T04:44:58.581Z,5.37
2023-04-16T04:47:25.506Z,5.63
2023-04-16T04:49:52.421Z,5.83
2023-04-16T04:52:20.390Z,5.40
2023-04-16T04:54:47.386Z,6.03
2023-04-16T04:57:14.253Z,6.23
2023-04-16T04:59:41.199Z,5.20
2023-04-16T05:02:08.093Z,5.13
2023-04-16T05:04:35.086Z,4.60
2023-04-16T05:07:02.532Z,7.20
2023-04-16T05:09:29.403Z,5.93
2023-04-16T05:11:57.513Z,5.57
2023-04-16T05:14:24.550Z,6.53
2023-04-16T05:16:51.544Z,5.80
2023-04-16T05:19:18.524Z,5.00
2023-04-16T05:21:45.515Z,5.80
2023-04-16T05:24:14.811Z,5.43
2023-04-16T05:26:41.940Z,6.00
2023-04-16T05:29:09.027Z,6.20
2023-04-16T05:31:36.293Z,6.40
2023-04-16T05:34:03.139Z,5.73
2023-04-16T05:36:30.072Z,5.90
2023-04-16T05:38:56.982Z,5.43
2023-04-16T05:41:24.030Z,5.03
2023-04-16T05:43:50.993Z,5.30
2023-04-16T05:46:17.902Z,5.40
2023-04-16T05:48:44.812Z,6.10
2023-04-16T05:51:11.723Z,7.03
2023-04-16T05:53:38.671Z,5.47
2023-04-16T05:56:07.612Z,5.60
2023-04-16T05:58:34.830Z,5.10
2023-04-16T06:01:01.917Z,5.57
2023-04-16T06:03:28.988Z,5.33
2023-04-16T06:05:55.979Z,5.23
2023-04-16T06:08:22.988Z,5.30
2023-04-16T06:10:49.994Z,6.17
2023-04-16T06:13:17.114Z,5.90
2023-04-16T06:15:44.001Z,6.17
2023-04-16T06:18:11.023Z,5.90
2023-04-16T06:20:38.075Z,6.47
2023-04-16T06:23:05.341Z,5.63
2023-04-16T06:25:32.306Z,5.30
2023-04-16T06:27:59.238Z,4.87
2023-04-16T06:30:26.323Z,5.67
2023-04-16T06:32:53.966Z,4.57
2023-04-16T06:35:20.937Z,5.23
2023-04-16T06:37:48.035Z,5.30
2023-04-16T06:40:15.455Z,6.10
2023-04-16T06:42:45.245Z,4.83
2023-04-16T06:45:13.523Z,5.27
2023-04-16T06:47:40.506Z,4.40
2023-04-16T06:50:08.156Z,4.37
2023-04-16T06:52:35.479Z,5.90
2023-04-16T06:55:02.660Z,4.50
2023-04-16T06:57:29.557Z,5.77
2023-04-16T06:59:56.678Z,5.63
2023-04-16T07:02:24.558Z,4.83
2023-04-16T07:04:52.382Z,4.50
2023-04-16T07:07:19.315Z,4.43
2023-04-16T07:09:46.213Z,4.83
2023-04-16T07:12:13.413Z,5.17
2023-04-16T07:14:41.389Z,5.10
2023-04-16T07:17:08.299Z,4.37
2023-04-16T07:19:35.815Z,5.43
2023-04-16T07:22:03.578Z,6.03
2023-04-16T07:24:30.588Z,5.33
2023-04-16T07:26:57.523Z,5.63
2023-04-16T07:29:24.492Z,4.30
2023-04-16T07:31:51.999Z,4.60
2023-04-16T07:34:18.991Z,5.40
2023-04-16T07:36:45.901Z,4.60
2023-04-16T07:39:13.154Z,3.90
2023-04-16T07:41:41.166Z,4.20
2023-04-16T07:44:08.250Z,4.23
2023-04-16T07:46:45.583Z,4.10
2023-04-16T07:49:13.672Z,3.43
2023-04-16T07:51:40.750Z,3.80
2023-04-16T07:54:07.644Z,3.83
2023-04-16T07:56:34.619Z,4.00
2023-04-16T07:59:14.380Z,4.00
2023-04-16T08:03:34.740Z,3.20
2023-04-16T08:06:01.853Z,3.60
2023-04-16T08:08:29.577Z,3.57
2023-04-16T08:10:56.729Z,3.80
2023-04-16T08:13:24.822Z,3.10
2023-04-16T08:15:51.792Z,3.30
2023-04-16T08:18:19.684Z,3.50
2023-04-16T08:20:46.715Z,2.80
2023-04-16T08:23:13.674Z,3.57
2023-04-16T08:25:40.772Z,2.83
2023-04-16T08:28:07.779Z,3.10
2023-04-16T08:30:35.038Z,3.00
2023-04-16T08:33:02.335Z,3.87
2023-04-16T08:35:29.390Z,4.40
2023-04-16T08:37:57.795Z,3.67
2023-04-16T08:40:28.754Z,3.20
2023-04-16T08:43:02.856Z,2.60
2023-04-16T08:45:34.942Z,3.47
2023-04-16T08:48:06.552Z,2.90
2023-04-16T08:50:35.550Z,2.27
2023-04-16T08:53:10.411Z,2.67
2023-04-16T08:55:49.261Z,3.20
2023-04-16T08:58:23.094Z,2.53
2023-04-16T09:00:50.957Z,2.77
2023-04-16T09:03:21.473Z,3.40
2023-04-16T09:05:50.677Z,2.87
2023-04-16T09:08:18.422Z,2.70
2023-04-16T09:10:46.325Z,2.70
2023-04-16T09:13:16.809Z,2.60
2023-04-16T09:15:44.814Z,2.33
2023-04-16T09:18:12.277Z,3.07
2023-04-16T09:20:39.940Z,2.50
2023-04-16T09:23:06.833Z,1.83
2023-04-16T09:25:35.039Z,2.20
2023-04-16T09:28:01.992Z,2.50
2023-04-16T09:30:29.000Z,2.27
2023-04-16T09:33:24.634Z,2.10
2023-04-16T09:35:54.520Z,1.90
2023-04-16T09:38:21.906Z,2.00
2023-04-16T09:41:08.049Z,2.00
2023-04-16T09:43:35.491Z,1.50
2023-04-16T09:46:08.308Z,1.50
2023-04-16T09:48:35.916Z,1.70
2023-04-16T09:51:06.647Z,1.50
2023-04-16T09:53:33.607Z,1.40
2023-04-16T09:56:07.002Z,1.70
2023-04-16T09:58:37.983Z,1.93
2023-04-16T10:01:13.153Z,1.63
2023-04-16T10:03:41.171Z,1.80
2023-04-16T10:06:22.036Z,1.97
2023-04-16T10:08:57.892Z,1.70
2023-04-16T10:11:25.759Z,1.60
2023-04-16T10:13:53.325Z,1.40
2023-04-16T10:16:22.277Z,1.90
2023-04-16T10:18:49.542Z,1.67
2023-04-16T10:21:16.934Z,1.80
2023-04-16T10:23:44.295Z,1.70
2023-04-16T10:26:11.876Z,1.50
2023-04-16T10:28:40.614Z,1.50
2023-04-16T10:31:09.665Z,1.50
2023-04-16T10:33:41.767Z,2.10
2023-04-16T10:36:24.435Z,2.17
2023-04-16T10:38:56.580Z,1.80
2023-04-16T10:41:26.792Z,1.83
2023-04-16T10:44:06.492Z,1.60
2023-04-16T10:46:41.466Z,1.53
2023-04-16T10:49:24.660Z,4.70
2023-04-16T10:52:13.813Z,4.70
2023-04-16T10:54:41.393Z,7.50
2023-04-16T10:57:19.543Z,3.30
2023-04-16T10:59:49.050Z,4.70
2023-04-16T11:02:19.423Z,1.70
2023-04-16T11:04:49.506Z,1.90
2023-04-16T11:07:34.944Z,2.00
2023-04-16T11:10:12.898Z,2.03
2023-04-16T11:12:48.952Z,2.30
2023-04-16T11:15:21.549Z,1.77
2023-04-16T11:17:51.924Z,1.50
2023-04-16T11:20:28.410Z,1.57
2023-04-16T11:22:58.055Z,2.00
2023-04-16T11:25:34.024Z,1.90
2023-04-16T11:28:02.981Z,1.90
2023-04-16T11:30:37.593Z,1.40
2023-04-16T11:33:08.317Z,2.00
2023-04-16T11:35:35.932Z,1.73
2023-04-16T11:38:02.956Z,2.20
2023-04-16T11:40:31.825Z,2.07
2023-04-16T11:43:17.939Z,1.83
2023-04-16T11:46:20.042Z,1.90
2023-04-16T11:48:56.160Z,2.00
2023-04-16T11:51:23.846Z,2.17
2023-04-16T11:53:55.003Z,2.20
2023-04-16T11:56:37.134Z,2.10
2023-04-16T11:59:18.000Z,1.70
2023-04-16T12:01:55.603Z,1.53
2023-04-16T12:04:27.082Z,1.67
2023-04-16T12:07:14.540Z,1.53
2023-04-16T12:09:43.850Z,1.57
2023-04-16T12:12:32.423Z,1.97
2023-04-16T12:15:04.800Z,1.50
2023-04-16T12:17:37.959Z,1.40
2023-04-16T12:20:15.624Z,1.53
2023-04-16T12:22:49.531Z,1.57
2023-04-16T12:25:18.340Z,1.47
2023-04-16T12:27:55.868Z,1.53
2023-04-16T12:30:26.618Z,1.30
2023-04-16T12:33:19.574Z,1.27
2023-04-16T12:35:46.986Z,1.20
2023-04-16T12:38:15.299Z,1.30
2023-04-16T12:40:42.867Z,1.60
2023-04-16T12:43:10.605Z,1.60
2023-04-16T12:45:39.527Z,1.60
2023-04-16T12:48:07.075Z,2.50
2023-04-16T12:50:34.299Z,3.57
2023-04-16T12:53:01.273Z,2.37
2023-04-16T12:55:28.351Z,3.47
2023-04-16T12:57:56.323Z,2.07
2023-04-16T13:00:23.423Z,2.23
2023-04-16T13:02:50.426Z,1.70
2023-04-16T13:05:19.054Z,2.07
2023-04-16T13:07:46.167Z,1.90
2023-04-16T13:10:13.681Z,1.67
2023-04-16T13:12:40.931Z,3.90
2023-04-16T13:15:09.291Z,2.00
2023-04-16T13:17:36.274Z,2.10
2023-04-16T13:20:03.408Z,2.07
2023-04-16T13:22:30.686Z,1.77
2023-04-16T13:24:57.746Z,2.50
2023-04-16T13:27:24.776Z,2.67
2023-04-16T13:29:51.669Z,3.10
2023-04-16T13:32:19.147Z,2.40
2023-04-16T13:34:46.236Z,3.10
2023-04-16T13:37:17.147Z,3.40
2023-04-16T13:39:46.616Z,2.60
2023-04-16T13:42:13.549Z,2.50
2023-04-16T13:44:40.980Z,2.77
2023-04-16T13:47:08.281Z,6.30
2023-04-16T13:49:36.281Z,4.30
2023-04-16T13:52:03.903Z,2.67
2023-04-16T13:54:31.066Z,3.50
2023-04-16T13:56:58.024Z,3.80
2023-04-16T13:59:25.005Z,3.00
2023-04-16T14:01:52.123Z,2.30
2023-04-16T14:04:19.460Z,3.27
2023-04-16T14:06:46.465Z,2.97
2023-04-16T14:09:13.482Z,2.40
2023-04-16T14:11:40.512Z,2.60
2023-04-16T14:14:07.667Z,2.90
2023-04-16T14:16:35.067Z,2.43
2023-04-16T14:19:02.028Z,2.60
2023-04-16T14:21:31.024Z,2.30
2023-04-16T14:23:57.950Z,2.40
2023-04-16T14:26:24.916Z,2.37
2023-04-16T14:28:52.157Z,2.10
2023-04-16T14:31:19.897Z,2.53
2023-04-16T14:33:47.168Z,2.33
2023-04-16T14:36:14.274Z,2.10
2023-04-16T14:38:43.140Z,2.43
2023-04-16T14:41:12.324Z,1.90
2023-04-16T14:43:41.096Z,2.03
2023-04-16T14:46:08.214Z,2.30
2023-04-16T14:48:35.201Z,1.93
2023-04-16T14:51:02.557Z,1.90
2023-04-16T14:53:29.589Z,1.87
2023-04-16T14:55:58.806Z,1.77
2023-04-16T14:58:26.657Z,2.20
2023-04-16T15:00:53.843Z,1.83
2023-04-16T15:03:21.456Z,2.30
2023-04-16T15:05:54.711Z,1.57
2023-04-16T15:08:23.221Z,1.77
2023-04-16T15:10:51.500Z,1.70
2023-04-16T15:13:19.183Z,2.10
2023-04-16T15:15:46.324Z,1.57
2023-04-16T15:18:13.457Z,1.93
2023-04-16T15:20:40.369Z,1.97
2023-04-16T15:23:07.601Z,1.80
2023-04-16T15:25:34.630Z,1.90
2023-04-16T15:28:02.577Z,1.80
2023-04-16T15:30:30.910Z,1.73
2023-04-16T15:32:57.935Z,1.93
2023-04-16T15:35:25.013Z,1.80
2023-04-16T15:37:52.695Z,2.33
2023-04-16T15:40:20.485Z,2.07
2023-04-16T15:42:48.084Z,1.50
2023-04-16T15:45:15.013Z,1.57
2023-04-16T15:47:43.120Z,1.60
2023-04-16T15:50:10.585Z,2.00
2023-04-16T15:52:38.509Z,4.67
2023-04-16T15:55:06.114Z,4.10
2023-04-16T15:57:33.034Z,1.80
2023-04-16T16:00:06.874Z,2.07
2023-04-16T16:02:34.639Z,2.30
2023-04-16T16:05:02.001Z,1.87
2023-04-16T16:07:28.938Z,2.00
2023-04-16T16:09:56.194Z,2.20
2023-04-16T16:12:23.358Z,1.47
2023-04-16T16:14:50.207Z,1.70
2023-04-16T16:17:18.251Z,2.30
2023-04-16T16:19:46.476Z,2.50
2023-04-16T16:22:13.841Z,2.30
2023-04-16T16:24:40.853Z,1.70
2023-04-16T16:27:07.741Z,2.47
2023-04-16T16:29:34.711Z,2.23
2023-04-16T16:32:01.779Z,2.17
2023-04-16T16:34:28.671Z,1.80
2023-04-16T16:36:55.653Z,2.17
2023-04-16T16:39:24.404Z,2.93
2023-04-16T16:41:54.493Z,2.13
2023-04-16T16:44:22.331Z,2.20
2023-04-16T16:46:50.759Z,2.33
2023-04-16T16:49:18.053Z,1.67
2023-04-16T16:51:48.741Z,1.60
2023-04-16T16:54:15.814Z,2.10
2023-04-16T16:56:42.793Z,2.57
2023-04-16T16:59:10.072Z,3.00
2023-04-16T17:01:37.721Z,2.23
2023-04-16T17:04:05.221Z,3.07
2023-04-16T17:06:33.180Z,3.07
2023-04-16T17:09:00.827Z,3.10
2023-04-16T17:11:29.138Z,2.57
2023-04-16T17:13:56.788Z,2.73
2023-04-16T17:16:24.232Z,3.87
2023-04-16T17:18:51.266Z,2.93
2023-04-16T17:21:18.171Z,2.93
2023-04-16T17:23:45.108Z,2.50
2023-04-16T17:26:12.129Z,2.60
2023-04-16T17:28:39.218Z,2.60
2023-04-16T17:31:08.349Z,2.70
2023-04-16T17:33:35.738Z,2.70
2023-04-16T17:36:02.734Z,2.70
2023-04-16T17:38:29.720Z,3.20
2023-04-16T17:40:57.863Z,3.00
2023-04-16T17:43:24.857Z,3.07
2023-04-16T17:45:51.895Z,2.90
2023-04-16T17:48:18.860Z,5.07
2023-04-16T17:50:45.778Z,2.87
2023-04-16T17:53:12.774Z,3.00
2023-04-16T17:55:39.750Z,3.20
2023-04-16T17:58:06.636Z,3.97
2023-04-16T18:00:33.613Z,3.70
2023-04-16T18:03:00.609Z,2.57
2023-04-16T18:05:27.741Z,2.87
2023-04-16T18:07:55.679Z,2.17
2023-04-16T18:10:22.879Z,2.70
2023-04-16T18:12:49.850Z,2.23
2023-04-16T18:15:16.948Z,2.57
2023-04-16T18:17:43.938Z,2.63
2023-04-16T18:20:12.417Z,6.53
2023-04-16T18:22:39.350Z,6.50
2023-04-16T18:25:07.170Z,3.30
2023-04-16T18:27:34.216Z,2.10
2023-04-16T18:30:01.191Z,2.03
2023-04-16T18:32:31.334Z,2.50
2023-04-16T18:34:58.365Z,4.50
2023-04-16T18:37:25.335Z,4.50
2023-04-16T18:39:52.266Z,5.20
2023-04-16T18:42:19.268Z,5.00
2023-04-16T18:44:54.039Z,3.00
2023-04-16T18:47:21.215Z,5.87
2023-04-16T18:49:48.149Z,5.10
2023-04-16T18:52:16.124Z,5.40
2023-04-16T18:54:43.537Z,6.43
2023-04-16T18:57:10.783Z,6.73
2023-04-16T18:59:37.704Z,5.23
2023-04-16T19:02:04.741Z,5.53
2023-04-16T19:04:31.844Z,4.30
2023-04-16T19:06:59.007Z,4.90
2023-04-16T19:09:27.056Z,4.60
2023-04-16T19:11:54.105Z,4.90
2023-04-16T19:14:22.014Z,4.20
2023-04-16T19:16:48.945Z,4.33
2023-04-16T19:19:17.657Z,4.10
2023-04-16T19:21:44.654Z,4.30
2023-04-16T19:24:11.656Z,3.83
2023-04-16T19:26:38.540Z,4.50
2023-04-16T19:29:05.474Z,5.00
2023-04-16T19:31:32.602Z,4.00
2023-04-16T19:33:59.514Z,4.20
2023-04-16T19:36:27.530Z,5.43
2023-04-16T19:38:55.587Z,6.77
2023-04-16T19:41:23.655Z,5.73
2023-04-16T19:43:50.579Z,6.10
2023-04-16T19:46:17.828Z,5.53
2023-04-16T19:48:44.939Z,4.80
2023-04-16T19:51:11.826Z,5.30
2023-04-16T19:53:38.888Z,4.77
2023-04-16T19:56:06.227Z,5.27
2023-04-16T19:58:33.257Z,4.57
2023-04-16T20:01:00.613Z,4.70
2023-04-16T20:03:28.630Z,4.20
2023-04-16T20:05:55.584Z,4.30
2023-04-16T20:08:22.667Z,5.33
2023-04-16T20:10:53.130Z,4.30
2023-04-16T20:13:20.219Z,4.37
2023-04-16T20:15:53.798Z,4.10
2023-04-16T20:18:20.978Z,3.90
2023-04-16T20:20:48.044Z,4.10
2023-04-16T20:23:15.358Z,4.33
2023-04-16T20:25:43.505Z,4.83
2023-04-16T20:28:10.591Z,4.37
2023-04-16T20:30:39.250Z,3.90
2023-04-16T20:33:08.185Z,5.10
2023-04-16T20:35:35.502Z,3.70
2023-04-16T20:38:02.370Z,3.97
2023-04-16T20:40:30.131Z,4.63
2023-04-16T20:43:01.088Z,4.47
2023-04-16T20:45:32.291Z,4.23
2023-04-16T20:47:59.698Z,3.70
2023-04-16T20:50:27.718Z,7.07
2023-04-16T20:52:54.711Z,6.07
2023-04-16T20:55:21.878Z,4.80
2023-04-16T20:57:48.830Z,4.30
2023-04-16T21:00:16.791Z,3.97
2023-04-16T21:02:43.899Z,3.90
2023-04-16T21:05:16.181Z,3.60
2023-04-16T21:07:43.447Z,3.63
2023-04-16T21:10:11.121Z,3.70
2023-04-16T21:12:39.054Z,3.50
2023-04-16T21:15:07.172Z,3.20
2023-04-16T21:17:34.191Z,4.20
2023-04-16T21:20:01.198Z,4.17
2023-04-16T21:22:29.210Z,4.07
2023-04-16T21:24:56.060Z,3.60
2023-04-16T21:27:23.985Z,4.17
2023-04-16T21:29:51.714Z,4.27
2023-04-16T21:32:19.596Z,3.90
2023-04-16T21:34:46.653Z,3.47
2023-04-16T21:37:13.607Z,4.50
2023-04-16T21:39:41.446Z,4.53
2023-04-16T21:42:08.414Z,4.20
2023-04-16T21:44:36.324Z,4.53
2023-04-16T21:47:03.384Z,3.83
2023-04-16T21:49:30.346Z,4.70
2023-04-16T21:51:59.116Z,3.40
2023-04-16T21:54:26.064Z,4.67
2023-04-16T21:56:52.931Z,4.97
2023-04-16T21:59:19.834Z,4.23
2023-04-16T22:01:46.783Z,4.30
2023-04-16T22:04:14.009Z,4.40
2023-04-16T22:06:40.943Z,4.80
2023-04-16T22:09:07.859Z,4.70
2023-04-16T22:11:34.811Z,4.40
2023-04-16T22:14:02.928Z,5.07
2023-04-16T22:16:29.870Z,4.20
2023-04-16T22:18:57.329Z,4.50
2023-04-16T22:21:24.782Z,4.47
2023-04-16T22:23:52.728Z,5.03
2023-04-16T22:26:19.568Z,4.40
2023-04-16T22:28:47.514Z,5.03
2023-04-16T22:31:14.375Z,5.30
2023-04-16T22:33:41.220Z,5.10
2023-04-16T22:36:08.565Z,5.83
2023-04-16T22:38:35.593Z,5.57
2023-04-16T22:41:02.463Z,5.50
2023-04-16T22:43:30.534Z,4.87
2023-04-16T22:46:06.965Z,5.27
2023-04-16T22:48:36.197Z,6.00
2023-04-16T22:51:12.706Z,5.40
2023-04-16T22:53:39.638Z,5.90
2023-04-16T22:56:07.061Z,5.40
2023-04-16T22:58:34.056Z,5.20
2023-04-16T23:01:01.517Z,5.70
2023-04-16T23:03:28.657Z,6.07
2023-04-16T23:05:55.813Z,5.53
2023-04-16T23:08:22.728Z,5.73
2023-04-16T23:10:49.675Z,5.50
2023-04-16T23:13:16.625Z,5.07
2023-04-16T23:15:43.683Z,5.23
2023-04-16T23:18:10.752Z,5.20
2023-04-16T23:20:37.666Z,5.90
2023-04-16T23:23:05.614Z,5.80
2023-04-16T23:25:32.631Z,6.10
2023-04-16T23:27:59.506Z,5.73
2023-04-16T23:30:26.491Z,4.90
2023-04-16T23:32:53.467Z,5.20
2023-04-16T23:35:22.750Z,5.77
2023-04-16T23:37:50.086Z,5.07
2023-04-16T23:40:17.394Z,5.47
2023-04-16T23:42:44.368Z,5.30
2023-04-16T23:45:12.016Z,5.93
2023-04-16T23:47:39.123Z,5.80
2023-04-16T23:50:07.091Z,5.67
2023-04-16T23:52:33.977Z,5.53
2023-04-16T23:55:00.941Z,6.00
2023-04-16T23:57:27.905Z,5.40
2023-04-16T23:59:54.818Z,6.20
